createdAt,value
2022-10-29T00:01:58.511Z,6.60
2022-10-29T00:04:25.006Z,6.67
2022-10-29T00:06:51.434Z,6.30
2022-10-29T00:09:17.864Z,6.10
2022-10-29T00:11:44.298Z,5.80
2022-10-29T00:14:10.731Z,5.67
2022-10-29T00:16:39.341Z,7.10
2022-10-29T00:19:06.315Z,7.10
2022-10-29T00:21:34.455Z,6.53
2022-10-29T00:24:00.940Z,5.50
2022-10-29T00:26:29.357Z,6.00
2022-10-29T00:28:56.823Z,5.80
2022-10-29T00:31:26.928Z,6.23
2022-10-29T00:33:55.136Z,7.20
2022-10-29T00:36:24.132Z,6.30
2022-10-29T00:38:51.069Z,6.40
2022-10-29T00:41:22.011Z,7.73
2022-10-29T00:43:51.829Z,7.13
2022-10-29T00:46:27.591Z,9.07
2022-10-29T00:48:56.341Z,7.33
2022-10-29T00:51:23.289Z,7.50
2022-10-29T00:53:59.350Z,8.20
2022-10-29T00:56:28.151Z,6.73
2022-10-29T00:58:54.820Z,7.13
2022-10-29T01:01:21.437Z,7.03
2022-10-29T01:03:48.787Z,7.33
2022-10-29T01:06:15.445Z,6.43
2022-10-29T01:11:26.586Z,6.47
2022-10-29T01:14:29.910Z,6.00
2022-10-29T01:17:19.372Z,5.77
2022-10-29T01:20:07.782Z,5.20
2022-10-29T01:22:58.067Z,6.33
2022-10-29T01:25:42.449Z,6.00
2022-10-29T01:31:17.800Z,7.40
2022-10-29T01:33:52.826Z,6.43
2022-10-29T01:36:24.849Z,7.17
2022-10-29T04:29:35.622Z,7.63
2022-10-29T04:32:02.036Z,9.50
2022-10-29T04:34:28.489Z,9.97
2022-10-29T04:36:54.903Z,8.90
2022-10-29T04:39:23.379Z,10.57
2022-10-29T04:41:50.026Z,8.40
2022-10-29T04:44:16.980Z,8.83
2022-10-29T04:46:43.609Z,8.30
2022-10-29T04:49:10.129Z,8.77
2022-10-29T04:51:36.590Z,7.80
2022-10-29T04:54:03.098Z,7.37
2022-10-29T04:56:30.896Z,6.90
2022-10-29T04:58:57.348Z,7.77
2022-10-29T05:01:23.927Z,6.90
2022-10-29T05:03:52.191Z,6.60
2022-10-29T05:06:20.614Z,6.37
2022-10-29T05:08:47.219Z,6.17
2022-10-29T05:11:13.611Z,7.43
2022-10-29T05:13:40.011Z,6.80
2022-10-29T05:16:06.877Z,6.23
2022-10-29T05:18:33.288Z,7.70
2022-10-29T05:20:59.638Z,6.30
2022-10-29T05:23:26.044Z,7.80
2022-10-29T05:25:55.179Z,7.90
2022-10-29T05:28:22.918Z,7.30
2022-10-29T05:30:51.168Z,7.70
2022-10-29T05:33:22.851Z,7.13
2022-10-29T05:35:49.706Z,7.40
2022-10-29T05:38:16.745Z,7.50
2022-10-29T05:40:45.084Z,8.20
2022-10-29T05:43:13.311Z,8.97
2022-10-29T05:45:39.839Z,9.27
2022-10-29T05:48:06.919Z,8.70
2022-10-29T05:50:34.235Z,8.37
2022-10-29T05:53:03.249Z,9.60
2022-10-29T05:55:32.998Z,7.73
2022-10-29T05:58:01.521Z,8.60
2022-10-29T06:00:30.257Z,9.67
2022-10-29T06:02:57.454Z,9.33
2022-10-29T06:05:24.268Z,8.40
2022-10-29T06:07:56.100Z,9.57
2022-10-29T06:10:24.403Z,8.50
2022-10-29T06:12:51.217Z,8.40
2022-10-29T06:15:18.166Z,7.83
2022-10-29T06:17:45.629Z,8.57
2022-10-29T06:20:14.165Z,9.03
2022-10-29T06:22:40.611Z,8.50
2022-10-29T06:25:07.724Z,8.70
2022-10-29T06:27:34.298Z,8.90
2022-10-29T06:30:00.691Z,8.63
2022-10-29T06:32:27.054Z,8.10
2022-10-29T06:34:53.439Z,9.20
2022-10-29T06:37:19.830Z,8.53
2022-10-29T06:39:46.230Z,8.60
2022-10-29T06:42:12.633Z,8.77
2022-10-29T06:44:39.044Z,8.80
2022-10-29T06:47:05.810Z,8.67
2022-10-29T06:49:32.271Z,8.50
2022-10-29T06:51:58.633Z,7.40
2022-10-29T06:54:25.004Z,7.13
2022-10-29T06:56:51.382Z,9.03
2022-10-29T06:59:17.772Z,8.03
2022-10-29T07:01:44.244Z,7.50
2022-10-29T07:04:10.642Z,8.07
2022-10-29T07:06:37.042Z,7.87
2022-10-29T07:09:03.543Z,7.80
2022-10-29T07:11:29.900Z,6.77
2022-10-29T07:13:56.294Z,8.30
2022-10-29T07:16:22.726Z,7.53
2022-10-29T07:18:49.112Z,7.33
2022-10-29T07:21:15.529Z,8.30
2022-10-29T07:23:42.046Z,7.97
2022-10-29T07:26:08.542Z,8.47
2022-10-29T07:28:35.185Z,7.60
2022-10-29T07:31:02.206Z,8.50
2022-10-29T07:33:32.246Z,9.00
2022-10-29T07:35:59.278Z,9.10
2022-10-29T07:38:26.353Z,8.00
2022-10-29T07:40:53.570Z,8.80
2022-10-29T07:43:21.189Z,8.10
2022-10-29T07:45:52.217Z,8.63
2022-10-29T07:48:20.264Z,8.43
2022-10-29T07:50:47.397Z,8.83
2022-10-29T07:53:14.245Z,8.30
2022-10-29T07:55:41.121Z,9.10
2022-10-29T07:58:11.519Z,8.60
2022-10-29T08:00:40.076Z,8.70
2022-10-29T08:03:07.447Z,8.50
2022-10-29T08:05:34.399Z,8.53
2022-10-29T08:08:01.140Z,8.97
2022-10-29T08:10:29.153Z,9.63
2022-10-29T08:12:58.414Z,8.73
2022-10-29T08:15:27.081Z,8.27
2022-10-29T08:17:54.139Z,8.50
2022-10-29T08:20:22.701Z,9.73
2022-10-29T08:22:49.257Z,9.27
2022-10-29T08:25:16.304Z,8.60
2022-10-29T08:27:43.415Z,8.30
2022-10-29T08:30:12.932Z,8.67
2022-10-29T08:32:46.800Z,8.53
2022-10-29T08:35:14.168Z,7.40
2022-10-29T08:37:44.247Z,8.03
2022-10-29T08:40:21.711Z,8.67
2022-10-29T08:42:56.497Z,8.57
2022-10-29T08:45:37.475Z,9.00
2022-10-29T08:48:21.771Z,8.57
2022-10-29T08:51:06.102Z,8.87
2022-10-29T08:53:58.723Z,7.90
2022-10-29T08:56:36.910Z,8.23
2022-10-29T08:59:18.451Z,8.33
2022-10-29T09:01:45.371Z,8.80
2022-10-29T09:04:36.657Z,7.63
2022-10-29T09:07:08.815Z,8.07
2022-10-29T09:09:49.157Z,7.80
2022-10-29T09:12:37.343Z,7.70
2022-10-29T09:15:25.891Z,8.47
2022-10-29T09:18:14.914Z,7.10
2022-10-29T09:21:01.765Z,7.73
2022-10-29T09:23:58.750Z,7.87
2022-10-29T09:26:38.663Z,8.20
2022-10-29T09:29:32.967Z,6.93
2022-10-29T09:32:48.654Z,7.80
2022-10-29T09:35:17.914Z,7.27
2022-10-29T09:37:49.348Z,7.83
2022-10-29T09:40:27.477Z,8.40
2022-10-29T09:42:54.378Z,7.40
2022-10-29T09:45:27.709Z,7.97
2022-10-29T09:48:04.887Z,7.97
2022-10-29T09:50:45.417Z,7.47
2022-10-29T09:53:12.280Z,7.33
2022-10-29T09:55:43.755Z,7.77
2022-10-29T09:58:20.303Z,7.80
2022-10-29T10:00:46.778Z,7.53
2022-10-29T10:03:18.531Z,8.30
2022-10-29T10:06:06.837Z,7.20
2022-10-29T10:08:34.199Z,8.53
2022-10-29T10:11:02.780Z,7.27
2022-10-29T10:13:32.839Z,7.10
2022-10-29T10:16:01.716Z,8.10
2022-10-29T10:18:41.106Z,8.83
2022-10-29T10:21:10.381Z,7.50
2022-10-29T10:23:42.188Z,8.13
2022-10-29T10:26:27.374Z,9.50
2022-10-29T10:29:09.427Z,8.00
2022-10-29T10:31:35.870Z,8.50
2022-10-29T10:34:21.964Z,8.50
2022-10-29T10:37:04.027Z,8.90
2022-10-29T10:39:30.465Z,8.60
2022-10-29T10:42:01.637Z,8.13
2022-10-29T10:44:28.852Z,8.37
2022-10-29T10:46:58.646Z,7.93
2022-10-29T10:49:36.551Z,8.57
2022-10-29T10:52:25.465Z,7.37
2022-10-29T10:55:26.480Z,8.37
2022-10-29T10:58:02.744Z,8.20
2022-10-29T11:00:36.106Z,7.80
2022-10-29T11:03:13.571Z,7.93
2022-10-29T11:05:46.478Z,8.87
2022-10-29T11:08:20.159Z,7.23
2022-10-29T11:10:57.295Z,7.40
2022-10-29T11:13:28.961Z,7.37
2022-10-29T11:16:04.855Z,7.70
2022-10-29T11:18:34.949Z,7.93
2022-10-29T11:21:07.211Z,7.13
2022-10-29T11:23:48.215Z,6.80
2022-10-29T11:26:40.566Z,7.20
2022-10-29T11:29:36.117Z,6.57
2022-10-29T11:32:12.337Z,7.10
2022-10-29T11:34:48.190Z,6.87
2022-10-29T11:37:25.563Z,8.17
2022-10-29T11:40:13.860Z,7.90
2022-10-29T11:42:41.006Z,7.67
2022-10-29T11:45:17.372Z,7.60
2022-10-29T11:47:52.323Z,7.13
2022-10-29T11:51:01.071Z,7.30
2022-10-29T11:53:33.180Z,6.50
2022-10-29T11:56:27.965Z,7.97
2022-10-29T11:59:23.375Z,6.40
2022-10-29T12:01:59.017Z,7.53
2022-10-29T12:04:48.407Z,7.20
2022-10-29T12:07:43.311Z,6.93
2022-10-29T12:10:47.301Z,7.70
2022-10-29T12:13:13.609Z,6.13
2022-10-29T12:15:43.886Z,7.00
2022-10-29T12:18:32.050Z,6.67
2022-10-29T12:21:17.103Z,6.27
2022-10-29T12:24:21.454Z,6.87
2022-10-29T12:27:00.165Z,7.30
2022-10-29T12:29:52.699Z,6.73
2022-10-29T12:32:37.769Z,7.60
2022-10-29T12:35:33.812Z,7.37
2022-10-29T12:38:40.969Z,7.10
2022-10-29T12:41:23.556Z,7.43
2022-10-29T12:43:51.873Z,6.83
2022-10-29T12:46:43.013Z,7.93
2022-10-29T12:49:12.295Z,7.40
2022-10-29T12:51:49.158Z,6.93
2022-10-29T12:54:26.829Z,7.20
2022-10-29T12:56:53.763Z,6.80
2022-10-29T12:59:35.379Z,9.40
2022-10-29T13:02:38.927Z,8.50
2022-10-29T13:05:11.131Z,7.77
2022-10-29T13:07:58.890Z,7.10
2022-10-29T13:10:27.013Z,7.93
2022-10-29T13:12:59.513Z,7.60
2022-10-29T13:15:34.156Z,8.27
2022-10-29T13:18:08.801Z,8.00
2022-10-29T13:21:01.577Z,8.13
2022-10-29T13:23:29.079Z,7.63
2022-10-29T13:25:59.423Z,7.67
2022-10-29T13:28:25.750Z,7.67
2022-10-29T13:31:12.386Z,7.93
2022-10-29T13:33:38.748Z,7.90
2022-10-29T13:36:29.014Z,8.40
2022-10-29T13:39:06.505Z,7.40
2022-10-29T13:41:42.549Z,7.30
2022-10-29T13:44:09.666Z,8.57
2022-10-29T13:47:00.990Z,7.67
2022-10-29T13:49:33.930Z,8.03
2022-10-29T13:52:21.185Z,7.73
2022-10-29T13:54:50.351Z,8.73
2022-10-29T13:57:25.478Z,7.90
2022-10-29T13:59:59.389Z,7.33
2022-10-29T14:02:39.293Z,8.67
2022-10-29T14:05:14.755Z,7.40
2022-10-29T14:07:52.990Z,7.57
2022-10-29T14:10:32.676Z,8.93
2022-10-29T14:13:08.018Z,9.00
2022-10-29T14:15:34.700Z,8.43
2022-10-29T14:18:24.519Z,8.07
2022-10-29T14:20:55.839Z,8.93
2022-10-29T14:23:22.330Z,8.53
2022-10-29T14:25:53.684Z,8.70
2022-10-29T14:28:30.035Z,8.80
2022-10-29T14:31:07.072Z,9.50
2022-10-29T14:33:38.420Z,8.60
2022-10-29T14:36:09.325Z,7.33
2022-10-29T14:38:43.325Z,8.57
2022-10-29T14:41:11.215Z,7.93
2022-10-29T14:43:39.005Z,8.60
2022-10-29T14:46:22.645Z,8.80
2022-10-29T14:48:56.230Z,8.90
2022-10-29T14:51:22.995Z,8.23
2022-10-29T14:53:57.366Z,8.33
2022-10-29T14:56:38.339Z,7.83
2022-10-29T14:59:15.245Z,8.07
2022-10-29T15:01:47.052Z,8.60
2022-10-29T15:04:23.854Z,8.67
2022-10-29T15:06:50.640Z,9.67
2022-10-29T15:09:22.262Z,9.10
2022-10-29T15:12:03.673Z,9.13
2022-10-29T15:14:50.294Z,9.20
2022-10-29T15:17:29.103Z,8.83
2022-10-29T15:20:05.438Z,8.43
2022-10-29T15:22:33.463Z,8.43
2022-10-29T15:25:02.966Z,9.20
2022-10-29T15:27:29.841Z,9.63
2022-10-29T15:29:56.889Z,9.30
2022-10-29T15:32:25.187Z,10.30
2022-10-29T15:34:56.517Z,9.60
2022-10-29T15:37:26.046Z,10.50
2022-10-29T15:39:56.500Z,9.20
2022-10-29T15:42:26.285Z,9.67
2022-10-29T15:45:07.751Z,9.33
2022-10-29T15:47:36.199Z,9.23
2022-10-29T15:50:04.204Z,9.33
2022-10-29T15:52:33.273Z,8.90
2022-10-29T15:55:01.390Z,9.50
2022-10-29T15:57:27.898Z,9.47
2022-10-29T15:59:57.294Z,10.27
2022-10-29T16:02:25.467Z,10.20
2022-10-29T16:04:51.957Z,10.33
2022-10-29T16:07:18.405Z,10.47
2022-10-29T16:09:50.365Z,9.47
2022-10-29T16:12:16.750Z,10.00
2022-10-29T16:14:43.154Z,9.90
2022-10-29T16:17:18.178Z,8.80
2022-10-29T16:19:44.746Z,9.30
2022-10-29T16:22:16.855Z,11.30
2022-10-29T16:24:43.312Z,10.60
2022-10-29T16:27:14.849Z,10.73
2022-10-29T16:29:41.758Z,9.70
2022-10-29T16:32:20.319Z,10.27
2022-10-29T16:34:47.237Z,9.70
2022-10-29T16:37:15.914Z,10.33
2022-10-29T16:39:43.034Z,9.40
2022-10-29T16:42:31.619Z,9.80
2022-10-29T16:44:58.114Z,10.63
2022-10-29T16:47:24.688Z,9.83
2022-10-29T16:49:51.510Z,11.27
2022-10-29T16:52:21.080Z,10.00
2022-10-29T16:54:49.615Z,10.47
2022-10-29T16:57:16.059Z,10.00
2022-10-29T16:59:42.489Z,10.80
2022-10-29T17:02:11.048Z,13.23
2022-10-29T17:04:37.643Z,12.10
2022-10-29T17:07:04.198Z,12.60
2022-10-29T17:09:30.792Z,11.63
2022-10-29T17:12:00.233Z,10.90
2022-10-29T17:14:26.631Z,11.03
2022-10-29T17:16:53.210Z,9.30
2022-10-29T17:19:19.600Z,9.57
2022-10-29T17:21:46.007Z,10.37
2022-10-29T17:24:12.444Z,11.43
2022-10-29T17:26:38.826Z,11.03
2022-10-29T17:29:05.375Z,12.77
2022-10-29T17:31:31.759Z,13.90
2022-10-29T17:33:58.219Z,13.90
2022-10-29T17:36:24.617Z,19.80
2022-10-29T17:38:50.994Z,22.50
2022-10-29T17:41:17.475Z,18.67
2022-10-29T17:43:43.946Z,14.20
2022-10-29T17:46:10.414Z,13.40
2022-10-29T17:48:36.901Z,12.43
2022-10-29T17:51:03.412Z,11.93
2022-10-29T17:53:30.944Z,10.47
2022-10-29T17:55:59.301Z,9.90
2022-10-29T17:58:26.287Z,8.33
2022-10-29T18:00:53.236Z,9.87
2022-10-29T18:03:19.705Z,10.77
2022-10-29T18:05:47.034Z,14.27
2022-10-29T18:08:13.426Z,18.50
2022-10-29T18:10:39.868Z,22.73
2022-10-29T18:13:06.342Z,23.90
2022-10-29T18:15:32.728Z,30.37
2022-10-29T18:18:00.591Z,20.97
2022-10-29T18:20:26.992Z,14.93
2022-10-29T18:22:55.900Z,12.03
2022-10-29T18:25:22.645Z,10.20
2022-10-29T18:27:49.162Z,11.07
2022-10-29T18:30:16.078Z,9.90
2022-10-29T18:32:42.487Z,9.60
2022-10-29T18:35:09.476Z,8.97
2022-10-29T18:37:35.886Z,9.83
2022-10-29T18:40:02.363Z,9.80
2022-10-29T18:42:29.884Z,10.20
2022-10-29T18:44:56.332Z,10.87
2022-10-29T18:47:22.783Z,9.33
2022-10-29T18:49:49.154Z,9.93
2022-10-29T18:52:15.607Z,13.43
2022-10-29T18:54:42.069Z,11.67
2022-10-29T18:57:08.474Z,11.10
2022-10-29T18:59:34.899Z,10.80
2022-10-29T19:02:01.509Z,12.17
2022-10-29T19:04:28.218Z,12.10
2022-10-29T19:06:54.923Z,12.00
2022-10-29T19:09:21.381Z,12.80
2022-10-29T19:11:55.283Z,13.17
2022-10-29T19:14:24.832Z,32.30
2022-10-29T19:16:51.232Z,37.43
2022-10-29T19:19:21.199Z,68.57
2022-10-29T19:21:50.419Z,75.90
2022-10-29T19:24:17.245Z,82.20
2022-10-29T19:26:43.857Z,63.33
2022-10-29T19:29:11.277Z,40.57
2022-10-29T19:31:37.764Z,26.70
2022-10-29T19:34:07.049Z,21.60
2022-10-29T19:36:35.106Z,15.67
2022-10-29T19:39:01.703Z,13.93
2022-10-29T19:41:29.318Z,12.63
2022-10-29T19:43:59.277Z,11.50
2022-10-29T19:46:25.745Z,10.63
2022-10-29T19:48:54.879Z,10.10
2022-10-29T19:51:22.494Z,10.37
2022-10-29T19:53:51.349Z,9.20
2022-10-29T19:56:18.615Z,8.73
2022-10-29T19:58:45.638Z,10.27
2022-10-29T20:01:17.629Z,9.20
2022-10-29T20:03:45.045Z,9.57
2022-10-29T20:06:12.217Z,9.90
2022-10-29T20:08:39.119Z,9.23
2022-10-29T20:11:06.379Z,9.80
2022-10-29T20:13:32.840Z,10.43
2022-10-29T20:15:59.350Z,12.63
2022-10-29T20:18:25.781Z,13.40
2022-10-29T20:20:56.636Z,13.60
2022-10-29T20:23:25.402Z,66.30
2022-10-29T20:25:51.843Z,69.33
2022-10-29T20:28:18.260Z,63.73
2022-10-29T20:30:44.647Z,38.57
2022-10-29T20:33:11.152Z,25.90
2022-10-29T20:35:37.605Z,17.80
2022-10-29T20:38:04.314Z,17.07
2022-10-29T20:40:30.804Z,14.00
2022-10-29T20:42:57.326Z,11.33
2022-10-29T20:45:23.792Z,10.70
2022-10-29T20:47:50.207Z,10.23
2022-10-29T20:50:16.668Z,10.10
2022-10-29T20:52:48.074Z,9.43
2022-10-29T20:55:15.258Z,9.53
2022-10-29T20:57:41.656Z,9.63
2022-10-29T21:00:08.700Z,9.43
2022-10-29T21:02:35.351Z,8.90
2022-10-29T21:05:01.837Z,10.50
2022-10-29T21:07:28.220Z,9.17
2022-10-29T21:09:54.609Z,9.73
2022-10-29T21:12:21.028Z,10.07
2022-10-29T21:14:47.499Z,9.67
2022-10-29T21:17:14.011Z,9.07
2022-10-29T21:19:40.485Z,9.30
2022-10-29T21:22:06.923Z,9.67
2022-10-29T21:24:33.409Z,9.90
2022-10-29T21:26:59.849Z,8.60
2022-10-29T21:29:26.240Z,9.50
2022-10-29T21:31:52.619Z,10.60
2022-10-29T21:34:19.060Z,8.00
2022-10-29T21:36:45.936Z,8.70
2022-10-29T21:39:12.404Z,8.77
2022-10-29T21:41:38.834Z,8.20
2022-10-29T21:44:05.245Z,9.60
2022-10-29T21:46:31.641Z,9.57
2022-10-29T21:48:58.068Z,8.50
2022-10-29T21:51:24.514Z,7.80
2022-10-29T21:53:50.945Z,9.10
2022-10-29T21:56:17.499Z,9.00
2022-10-29T21:58:44.006Z,9.40
2022-10-29T22:01:15.372Z,8.33
2022-10-29T22:03:43.706Z,8.00
2022-10-29T22:06:13.316Z,9.57
2022-10-29T22:08:40.117Z,9.70
2022-10-29T22:11:07.253Z,10.00
2022-10-29T22:13:34.825Z,10.13
2022-10-29T22:16:02.521Z,10.77
2022-10-29T22:18:29.755Z,8.70
2022-10-29T22:21:03.237Z,9.97
2022-10-29T22:23:29.674Z,8.67
2022-10-29T22:25:56.119Z,8.40
2022-10-29T22:28:22.549Z,9.10
2022-10-29T22:30:48.980Z,8.87
2022-10-29T22:33:15.703Z,8.10
2022-10-29T22:35:42.143Z,8.30
2022-10-29T22:38:08.531Z,7.90
2022-10-29T22:40:40.794Z,8.37
2022-10-29T22:43:07.214Z,7.70
2022-10-29T22:45:33.602Z,7.50
2022-10-29T22:48:00.045Z,7.87
2022-10-29T22:50:26.480Z,7.53
2022-10-29T22:52:52.899Z,8.70
2022-10-29T22:55:19.356Z,8.17
2022-10-29T22:57:45.742Z,7.60
2022-10-29T23:00:12.721Z,7.60
2022-10-29T23:02:39.173Z,7.63
2022-10-29T23:05:06.032Z,7.97
2022-10-29T23:10:03.905Z,8.47
2022-10-29T23:12:30.344Z,7.43
2022-10-29T23:14:56.712Z,8.70
2022-10-29T23:17:23.086Z,8.63
2022-10-29T23:19:49.522Z,8.60
2022-10-29T23:24:47.297Z,7.60
2022-10-29T23:27:13.732Z,8.10
2022-10-29T23:29:40.169Z,9.17
2022-10-29T23:32:06.560Z,7.87
2022-10-29T23:34:32.951Z,8.37
2022-10-29T23:37:00.462Z,7.73
2022-10-29T23:39:28.603Z,7.40
2022-10-29T23:41:55.015Z,8.60
2022-10-29T23:44:21.391Z,8.77
2022-10-29T23:46:47.770Z,8.70
2022-10-29T23:49:14.147Z,8.47
2022-10-29T23:51:40.532Z,7.10
2022-10-29T23:54:06.992Z,7.97
2022-10-29T23:56:33.404Z,7.73
2022-10-29T23:58:59.842Z,8.10
